sensor_id;sensor_type;location;lat;lon;timestamp;pressure;altitude;pressure_sealevel;temperature;humidity
40075;BME280;26529;51.530;11.754;2023-03-12T00:02:09;99714.34;;;20.04;43.44
40075;BME280;26529;51.530;11.754;2023-03-12T00:04:34;99713.50;;;20.03;43.55
40075;BME280;26529;51.530;11.754;2023-03-12T00:07:01;99716.16;;;20.03;43.67
40075;BME280;26529;51.530;11.754;2023-03-12T00:09:27;99718.94;;;20.02;43.67
40075;BME280;26529;51.530;11.754;2023-03-12T00:11:52;99719.91;;;20.01;43.57
40075;BME280;26529;51.530;11.754;2023-03-12T00:14:18;99719.06;;;20.00;43.55
40075;BME280;26529;51.530;11.754;2023-03-12T00:16:43;99726.31;;;19.98;43.63
40075;BME280;26529;51.530;11.754;2023-03-12T00:19:11;99726.31;;;19.98;43.66
40075;BME280;26529;51.530;11.754;2023-03-12T00:21:38;99735.00;;;20.00;43.76
40075;BME280;26529;51.530;11.754;2023-03-12T00:24:03;99728.97;;;19.98;43.72
40075;BME280;26529;51.530;11.754;2023-03-12T00:26:30;99732.50;;;19.99;43.65
40075;BME280;26529;51.530;11.754;2023-03-12T00:28:55;99725.59;;;19.96;43.65
40075;BME280;26529;51.530;11.754;2023-03-12T00:31:21;99731.63;;;19.98;43.70
40075;BME280;26529;51.530;11.754;2023-03-12T00:33:48;99733.56;;;19.96;43.81
40075;BME280;26529;51.530;11.754;2023-03-12T00:36:17;99737.94;;;19.97;43.59
40075;BME280;26529;51.530;11.754;2023-03-12T00:38:43;99733.56;;;19.96;43.84
40075;BME280;26529;51.530;11.754;2023-03-12T00:41:09;99736.31;;;19.95;43.74
40075;BME280;26529;51.530;11.754;2023-03-12T00:43:34;99731.84;;;19.95;43.61
40075;BME280;26529;51.530;11.754;2023-03-12T00:46:00;99736.31;;;19.95;43.60
40075;BME280;26529;51.530;11.754;2023-03-12T00:48:25;99733.75;;;19.93;43.71
40075;BME280;26529;51.530;11.754;2023-03-12T00:50:50;99739.06;;;19.93;43.68
40075;BME280;26529;51.530;11.754;2023-03-12T00:53:16;99725.88;;;19.91;43.75
40075;BME280;26529;51.530;11.754;2023-03-12T00:55:41;99733.88;;;19.91;43.83
40075;BME280;26529;51.530;11.754;2023-03-12T00:58:07;99732.16;;;19.90;43.69
40075;BME280;26529;51.530;11.754;2023-03-12T01:00:33;99731.34;;;19.90;43.88
40075;BME280;26529;51.530;11.754;2023-03-12T01:02:58;99734.00;;;19.90;43.68
40075;BME280;26529;51.530;11.754;2023-03-12T01:05:24;99736.78;;;19.88;43.78
40075;BME280;26529;51.530;11.754;2023-03-12T01:07:49;99730.47;;;19.89;43.79
40075;BME280;26529;51.530;11.754;2023-03-12T01:10:16;99736.78;;;19.88;43.75
40075;BME280;26529;51.530;11.754;2023-03-12T01:12:44;99731.44;;;19.88;43.75
40075;BME280;26529;51.530;11.754;2023-03-12T01:15:13;99738.56;;;19.88;43.68
40075;BME280;26529;51.530;11.754;2023-03-12T01:17:39;99732.53;;;19.86;43.66
40075;BME280;26529;51.530;11.754;2023-03-12T01:20:05;99744.84;;;19.87;43.70
40075;BME280;26529;51.530;11.754;2023-03-12T01:22:33;99735.06;;;19.87;43.64
40075;BME280;26529;51.530;11.754;2023-03-12T01:24:58;99740.50;;;19.86;43.67
40075;BME280;26529;51.530;11.754;2023-03-12T01:27:24;99737.94;;;19.84;43.73
40075;BME280;26529;51.530;11.754;2023-03-12T01:29:49;99737.94;;;19.84;43.71
40075;BME280;26529;51.530;11.754;2023-03-12T01:32:15;99734.47;;;19.84;43.78
40075;BME280;26529;51.530;11.754;2023-03-12T01:34:42;99737.13;;;19.84;43.91
40075;BME280;26529;51.530;11.754;2023-03-12T01:37:08;99737.94;;;19.84;43.68
40075;BME280;26529;51.530;11.754;2023-03-12T01:39:33;99727.44;;;19.83;43.79
40075;BME280;26529;51.530;11.754;2023-03-12T01:41:59;99736.38;;;19.82;43.79
40075;BME280;26529;51.530;11.754;2023-03-12T01:44:25;99730.22;;;19.81;43.61
40075;BME280;26529;51.530;11.754;2023-03-12T01:46:50;99731.03;;;19.82;43.55
40075;BME280;26529;51.530;11.754;2023-03-12T01:49:27;99728.53;;;19.80;43.79
40075;BME280;26529;51.530;11.754;2023-03-12T01:52:05;99726.69;;;19.80;43.68
40075;BME280;26529;51.530;11.754;2023-03-12T01:54:52;99728.38;;;19.82;43.66
40075;BME280;26529;51.530;11.754;2023-03-12T01:57:22;99722.34;;;19.79;43.70
40075;BME280;26529;51.530;11.754;2023-03-12T01:59:52;99724.03;;;19.80;43.67
40075;BME280;26529;51.530;11.754;2023-03-12T02:02:19;99722.34;;;19.79;43.61
40075;BME280;26529;51.530;11.754;2023-03-12T02:04:56;99719.78;;;19.78;43.65
40075;BME280;26529;51.530;11.754;2023-03-12T02:07:24;99723.41;;;19.77;43.81
40075;BME280;26529;51.530;11.754;2023-03-12T02:09:49;99721.63;;;19.77;43.80
40075;BME280;26529;51.530;11.754;2023-03-12T02:12:16;99717.28;;;19.76;43.66
40075;BME280;26529;51.530;11.754;2023-03-12T02:14:42;99721.72;;;19.76;43.56
40075;BME280;26529;51.530;11.754;2023-03-12T02:17:08;99720.91;;;19.75;43.79
40075;BME280;26529;51.530;11.754;2023-03-12T02:22:25;99728.00;;;19.75;43.68
40075;BME280;26529;51.530;11.754;2023-03-12T02:27:42;99726.22;;;19.75;43.75
40075;BME280;26529;51.530;11.754;2023-03-12T02:30:08;99729.72;;;19.76;43.63
40075;BME280;26529;51.530;11.754;2023-03-12T02:32:37;99728.13;;;19.73;43.65
40075;BME280;26529;51.530;11.754;2023-03-12T02:35:04;99734.31;;;19.74;43.79
40075;BME280;26529;51.530;11.754;2023-03-12T02:37:31;99726.44;;;19.72;43.77
40075;BME280;26529;51.530;11.754;2023-03-12T02:40:16;99730.78;;;19.73;43.78
40075;BME280;26529;51.530;11.754;2023-03-12T02:42:42;99725.47;;;19.73;43.72
40075;BME280;26529;51.530;11.754;2023-03-12T02:45:09;99730.91;;;19.72;43.83
40075;BME280;26529;51.530;11.754;2023-03-12T02:47:34;99730.06;;;19.71;43.85
40075;BME280;26529;51.530;11.754;2023-03-12T02:50:00;99733.69;;;19.70;43.86
40075;BME280;26529;51.530;11.754;2023-03-12T02:52:25;99736.34;;;19.70;43.81
40075;BME280;26529;51.530;11.754;2023-03-12T02:54:51;99740.69;;;19.71;43.81
40075;BME280;26529;51.530;11.754;2023-03-12T02:57:16;99740.81;;;19.70;43.68
40075;BME280;26529;51.530;11.754;2023-03-12T02:59:42;99732.81;;;19.70;43.67
40075;BME280;26529;51.530;11.754;2023-03-12T03:02:08;99732.94;;;19.68;43.76
40075;BME280;26529;51.530;11.754;2023-03-12T03:04:34;99743.56;;;19.68;43.86
40075;BME280;26529;51.530;11.754;2023-03-12T03:07:00;99743.56;;;19.68;43.85
40075;BME280;26529;51.530;11.754;2023-03-12T03:09:26;99744.53;;;19.67;43.50
40075;BME280;26529;51.530;11.754;2023-03-12T03:11:52;99751.78;;;19.65;43.78
40075;BME280;26529;51.530;11.754;2023-03-12T03:14:18;99746.47;;;19.65;43.83
40075;BME280;26529;51.530;11.754;2023-03-12T03:16:46;99747.34;;;19.65;43.83
40075;BME280;26529;51.530;11.754;2023-03-12T03:19:12;99753.47;;;19.66;43.71
40075;BME280;26529;51.530;11.754;2023-03-12T03:21:37;99750.09;;;19.64;43.75
40075;BME280;26529;51.530;11.754;2023-03-12T03:24:03;99750.09;;;19.64;43.75
40075;BME280;26529;51.530;11.754;2023-03-12T03:26:29;99750.81;;;19.66;43.77
40075;BME280;26529;51.530;11.754;2023-03-12T03:28:54;99751.91;;;19.63;43.81
40075;BME280;26529;51.530;11.754;2023-03-12T03:31:20;99750.94;;;19.64;43.61
40075;BME280;26529;51.530;11.754;2023-03-12T03:33:46;99748.41;;;19.63;43.63
40075;BME280;26529;51.530;11.754;2023-03-12T03:36:12;99747.44;;;19.64;43.66
40075;BME280;26529;51.530;11.754;2023-03-12T03:38:44;99751.91;;;19.63;43.71
40075;BME280;26529;51.530;11.754;2023-03-12T03:41:18;99754.56;;;19.63;43.72
40075;BME280;26529;51.530;11.754;2023-03-12T03:43:44;99758.28;;;19.61;43.69
40075;BME280;26529;51.530;11.754;2023-03-12T03:46:12;99744.16;;;19.60;43.81
40075;BME280;26529;51.530;11.754;2023-03-12T03:48:40;99752.03;;;19.62;43.93
40075;BME280;26529;51.530;11.754;2023-03-12T03:51:08;99745.94;;;19.60;43.78
40075;BME280;26529;51.530;11.754;2023-03-12T03:53:36;99750.31;;;19.61;43.65
40075;BME280;26529;51.530;11.754;2023-03-12T03:56:07;99745.00;;;19.61;43.66
40075;BME280;26529;51.530;11.754;2023-03-12T03:58:36;99753.22;;;19.58;43.80
40075;BME280;26529;51.530;11.754;2023-03-12T04:01:02;99754.06;;;19.58;43.69
40075;BME280;26529;51.530;11.754;2023-03-12T04:03:28;99759.38;;;19.58;43.77
40075;BME280;26529;51.530;11.754;2023-03-12T04:05:55;99760.22;;;19.59;43.80
40075;BME280;26529;51.530;11.754;2023-03-12T04:08:21;99760.31;;;19.57;43.70
40075;BME280;26529;51.530;11.754;2023-03-12T04:10:47;99755.88;;;19.58;43.85
40075;BME280;26529;51.530;11.754;2023-03-12T04:13:12;99762.03;;;19.58;43.81
40075;BME280;26529;51.530;11.754;2023-03-12T04:15:45;99765.78;;;19.56;43.60
40075;BME280;26529;51.530;11.754;2023-03-12T04:18:11;99770.13;;;19.57;43.73
40075;BME280;26529;51.530;11.754;2023-03-12T04:20:36;99760.47;;;19.56;43.66
40075;BME280;26529;51.530;11.754;2023-03-12T04:23:02;99761.28;;;19.56;43.70
40075;BME280;26529;51.530;11.754;2023-03-12T04:25:27;99758.63;;;19.56;43.68
40075;BME280;26529;51.530;11.754;2023-03-12T04:27:53;99763.13;;;19.56;43.81
40075;BME280;26529;51.530;11.754;2023-03-12T04:30:18;99756.06;;;19.55;43.65
40075;BME280;26529;51.530;11.754;2023-03-12T04:32:44;99762.25;;;19.55;43.61
40075;BME280;26529;51.530;11.754;2023-03-12T04:35:09;99761.38;;;19.55;43.74
40075;BME280;26529;51.530;11.754;2023-03-12T04:37:35;99758.00;;;19.52;43.69
40075;BME280;26529;51.530;11.754;2023-03-12T04:40:02;99754.38;;;19.53;43.70
40075;BME280;26529;51.530;11.754;2023-03-12T04:42:35;99758.97;;;19.51;43.56
40075;BME280;26529;51.530;11.754;2023-03-12T04:45:02;99749.19;;;19.52;43.78
40075;BME280;26529;51.530;11.754;2023-03-12T04:47:30;99754.63;;;19.50;43.82
40075;BME280;26529;51.530;11.754;2023-03-12T04:49:56;99760.66;;;19.52;43.78
40075;BME280;26529;51.530;11.754;2023-03-12T04:52:21;99752.94;;;19.49;43.89
40075;BME280;26529;51.530;11.754;2023-03-12T04:54:47;99748.44;;;19.50;43.51
40075;BME280;26529;51.530;11.754;2023-03-12T04:57:12;99749.31;;;19.50;43.72
40075;BME280;26529;51.530;11.754;2023-03-12T04:59:38;99757.28;;;19.50;43.71
40075;BME280;26529;51.530;11.754;2023-03-12T05:02:03;99751.97;;;19.50;43.77
40075;BME280;26529;51.530;11.754;2023-03-12T05:04:29;99746.66;;;19.50;43.65
40075;BME280;26529;51.530;11.754;2023-03-12T05:06:55;99746.75;;;19.49;43.80
40075;BME280;26529;51.530;11.754;2023-03-12T05:09:20;99750.28;;;19.49;43.80
40075;BME280;26529;51.530;11.754;2023-03-12T05:11:46;99744.09;;;19.49;43.79
40075;BME280;26529;51.530;11.754;2023-03-12T05:14:14;99749.50;;;19.47;43.79
40075;BME280;26529;51.530;11.754;2023-03-12T05:16:41;99748.69;;;19.47;43.87
40075;BME280;26529;51.530;11.754;2023-03-12T05:19:07;99748.69;;;19.47;43.74
40075;BME280;26529;51.530;11.754;2023-03-12T05:21:33;99750.47;;;19.46;43.61
40075;BME280;26529;51.530;11.754;2023-03-12T05:23:58;99754.00;;;19.47;43.75
40075;BME280;26529;51.530;11.754;2023-03-12T05:26:28;99754.84;;;19.47;43.62
40075;BME280;26529;51.530;11.754;2023-03-12T05:29:02;99753.13;;;19.46;43.63
40075;BME280;26529;51.530;11.754;2023-03-12T05:31:29;99760.16;;;19.47;43.79
40075;BME280;26529;51.530;11.754;2023-03-12T05:33:58;99754.84;;;19.47;43.66
40075;BME280;26529;51.530;11.754;2023-03-12T05:36:24;99754.00;;;19.47;43.74
40075;BME280;26529;51.530;11.754;2023-03-12T05:38:50;99754.00;;;19.47;43.66
40075;BME280;26529;51.530;11.754;2023-03-12T05:41:28;99754.09;;;19.45;43.67
40075;BME280;26529;51.530;11.754;2023-03-12T05:43:58;99750.47;;;19.46;43.59
40075;BME280;26529;51.530;11.754;2023-03-12T05:46:26;99761.22;;;19.45;43.70
40075;BME280;26529;51.530;11.754;2023-03-12T05:48:52;99756.75;;;19.45;43.63
40075;BME280;26529;51.530;11.754;2023-03-12T05:51:18;99755.06;;;19.44;43.85
40075;BME280;26529;51.530;11.754;2023-03-12T05:53:44;99758.56;;;19.45;43.61
40075;BME280;26529;51.530;11.754;2023-03-12T05:56:12;99757.00;;;19.42;43.78
40075;BME280;26529;51.530;11.754;2023-03-12T05:58:38;99762.31;;;19.42;43.69
40075;BME280;26529;51.530;11.754;2023-03-12T06:01:14;99766.66;;;19.43;43.74
40075;BME280;26529;51.530;11.754;2023-03-12T06:03:40;99763.66;;;19.48;43.58
40075;BME280;26529;51.530;11.754;2023-03-12T06:06:08;99758.97;;;19.51;43.49
40075;BME280;26529;51.530;11.754;2023-03-12T06:08:33;99765.78;;;19.56;43.47
40075;BME280;26529;51.530;11.754;2023-03-12T06:10:59;99757.56;;;19.59;43.36
40075;BME280;26529;51.530;11.754;2023-03-12T06:13:24;99762.66;;;19.62;43.61
40075;BME280;26529;51.530;11.754;2023-03-12T06:15:51;99749.38;;;19.62;43.08
40075;BME280;26529;51.530;11.754;2023-03-12T06:18:17;99756.38;;;19.63;43.42
40075;BME280;26529;51.530;11.754;2023-03-12T06:20:43;99755.41;;;19.64;43.56
40075;BME280;26529;51.530;11.754;2023-03-12T06:23:09;99752.66;;;19.65;43.44
40075;BME280;26529;51.530;11.754;2023-03-12T06:25:35;99750.81;;;19.66;43.36
40075;BME280;26529;51.530;11.754;2023-03-12T06:28:01;99742.00;;;19.65;43.45
40075;BME280;26529;51.530;11.754;2023-03-12T06:30:26;99739.22;;;19.67;43.23
40075;BME280;26529;51.530;11.754;2023-03-12T06:32:52;99748.16;;;19.66;43.22
40075;BME280;26529;51.530;11.754;2023-03-12T06:35:18;99758.81;;;19.66;43.32
40075;BME280;26529;51.530;11.754;2023-03-12T06:37:43;99753.47;;;19.66;43.30
40075;BME280;26529;51.530;11.754;2023-03-12T06:40:10;99749.84;;;19.67;43.41
40075;BME280;26529;51.530;11.754;2023-03-12T06:42:37;99750.72;;;19.68;43.31
40075;BME280;26529;51.530;11.754;2023-03-12T06:45:04;99754.22;;;19.68;43.41
40075;BME280;26529;51.530;11.754;2023-03-12T06:47:30;99751.34;;;19.71;43.51
40075;BME280;26529;51.530;11.754;2023-03-12T06:49:55;99756.41;;;19.74;43.53
40075;BME280;26529;51.530;11.754;2023-03-12T06:52:21;99756.19;;;19.77;43.51
40075;BME280;26529;51.530;11.754;2023-03-12T06:54:46;99762.97;;;19.82;43.49
40075;BME280;26529;51.530;11.754;2023-03-12T06:57:12;99760.19;;;19.83;43.43
40075;BME280;26529;51.530;11.754;2023-03-12T06:59:37;99759.13;;;19.86;43.20
40075;BME280;26529;51.530;11.754;2023-03-12T07:02:03;99761.56;;;19.89;43.49
40075;BME280;26529;51.530;11.754;2023-03-12T07:04:28;99745.38;;;19.92;43.53
40075;BME280;26529;51.530;11.754;2023-03-12T07:06:53;99746.88;;;19.96;43.55
40075;BME280;26529;51.530;11.754;2023-03-12T07:09:19;99745.81;;;19.99;43.36
40075;BME280;26529;51.530;11.754;2023-03-12T07:11:45;99741.19;;;20.01;43.49
40075;BME280;26529;51.530;11.754;2023-03-12T07:14:10;99744.59;;;20.03;43.42
40075;BME280;26529;51.530;11.754;2023-03-12T07:16:36;99750.63;;;20.05;43.58
40075;BME280;26529;51.530;11.754;2023-03-12T07:19:02;99744.38;;;20.06;43.47
40075;BME280;26529;51.530;11.754;2023-03-12T07:21:28;99734.56;;;20.06;43.45
40075;BME280;26529;51.530;11.754;2023-03-12T07:23:54;99734.44;;;20.08;43.44
40075;BME280;26529;51.530;11.754;2023-03-12T07:26:19;99731.69;;;20.10;43.35
40075;BME280;26529;51.530;11.754;2023-03-12T07:28:45;99731.69;;;20.10;43.37
40075;BME280;26529;51.530;11.754;2023-03-12T07:31:11;99732.63;;;20.09;43.63
40075;BME280;26529;51.530;11.754;2023-03-12T07:33:36;99736.03;;;20.11;43.59
40075;BME280;26529;51.530;11.754;2023-03-12T07:36:02;99739.53;;;20.11;43.62
40075;BME280;26529;51.530;11.754;2023-03-12T07:38:28;99734.09;;;20.13;43.46
40075;BME280;26529;51.530;11.754;2023-03-12T07:40:55;99728.75;;;20.13;43.44
40075;BME280;26529;51.530;11.754;2023-03-12T07:43:22;99737.47;;;20.15;43.39
40075;BME280;26529;51.530;11.754;2023-03-12T07:45:50;99726.81;;;20.15;43.50
40075;BME280;26529;51.530;11.754;2023-03-12T07:48:16;99733.88;;;20.16;43.51
40075;BME280;26529;51.530;11.754;2023-03-12T07:50:44;99733.88;;;20.16;43.75
40075;BME280;26529;51.530;11.754;2023-03-12T07:53:10;99724.91;;;20.17;43.67
40075;BME280;26529;51.530;11.754;2023-03-12T07:55:35;99735.41;;;20.18;43.36
40075;BME280;26529;51.530;11.754;2023-03-12T07:58:01;99732.66;;;20.20;43.55
40075;BME280;26529;51.530;11.754;2023-03-12T08:00:27;99732.91;;;20.28;43.51
40075;BME280;26529;51.530;11.754;2023-03-12T08:02:53;99732.22;;;20.38;43.46
40075;BME280;26529;51.530;11.754;2023-03-12T08:05:18;99729.28;;;20.41;43.46
40075;BME280;26529;51.530;11.754;2023-03-12T08:07:44;99732.81;;;20.41;43.33
40075;BME280;26529;51.530;11.754;2023-03-12T08:10:11;99726.41;;;20.44;43.64
40075;BME280;26529;51.530;11.754;2023-03-12T08:12:36;99725.44;;;20.56;43.35
40075;BME280;26529;51.530;11.754;2023-03-12T08:15:03;99720.97;;;20.57;43.15
40075;BME280;26529;51.530;11.754;2023-03-12T08:17:29;99725.69;;;20.53;43.28
40075;BME280;26529;51.530;11.754;2023-03-12T08:19:54;99728.22;;;20.55;43.19
40075;BME280;26529;51.530;11.754;2023-03-12T08:22:20;99713.06;;;20.55;43.43
40075;BME280;26529;51.530;11.754;2023-03-12T08:24:45;99713.06;;;20.55;43.39
40075;BME280;26529;51.530;11.754;2023-03-12T08:27:11;99703.28;;;20.56;43.22
40075;BME280;26529;51.530;11.754;2023-03-12T08:29:38;99711.16;;;20.57;43.35
40075;BME280;26529;51.530;11.754;2023-03-12T08:32:03;99691.53;;;20.58;43.09
40075;BME280;26529;51.530;11.754;2023-03-12T08:34:29;99691.53;;;20.58;43.09
40075;BME280;26529;51.530;11.754;2023-03-12T08:36:54;99698.56;;;20.59;43.13
40075;BME280;26529;51.530;11.754;2023-03-12T08:39:20;99690.56;;;20.59;43.01
40075;BME280;26529;51.530;11.754;2023-03-12T08:41:46;99697.47;;;20.62;43.19
40075;BME280;26529;51.530;11.754;2023-03-12T08:44:11;99693.00;;;20.63;43.03
40075;BME280;26529;51.530;11.754;2023-03-12T08:46:37;99694.44;;;20.67;43.14
40075;BME280;26529;51.530;11.754;2023-03-12T08:49:02;99696.13;;;20.68;42.92
40075;BME280;26529;51.530;11.754;2023-03-12T08:51:28;99692.25;;;20.72;43.00
40075;BME280;26529;51.530;11.754;2023-03-12T08:53:53;99679.44;;;20.77;42.83
40075;BME280;26529;51.530;11.754;2023-03-12T08:56:18;99675.53;;;20.81;42.74
40075;BME280;26529;51.530;11.754;2023-03-12T08:58:44;99664.69;;;20.84;42.55
40075;BME280;26529;51.530;11.754;2023-03-12T09:01:11;99675.06;;;20.87;42.55
40075;BME280;26529;51.530;11.754;2023-03-12T09:03:37;99673.88;;;20.92;42.53
40075;BME280;26529;51.530;11.754;2023-03-12T09:06:07;99671.44;;;20.88;42.57
40075;BME280;26529;51.530;11.754;2023-03-12T09:08:44;99662.22;;;20.93;42.38
40075;BME280;26529;51.530;11.754;2023-03-12T09:11:12;99663.44;;;20.88;42.68
40075;BME280;26529;51.530;11.754;2023-03-12T09:13:38;99671.44;;;20.88;42.54
40075;BME280;26529;51.530;11.754;2023-03-12T09:16:05;99667.94;;;20.88;42.58
40075;BME280;26529;51.530;11.754;2023-03-12T09:18:31;99670.72;;;20.86;42.77
40075;BME280;26529;51.530;11.754;2023-03-12T09:20:56;99665.50;;;20.85;42.62
40075;BME280;26529;51.530;11.754;2023-03-12T09:23:23;99659.34;;;20.84;42.72
40075;BME280;26529;51.530;11.754;2023-03-12T09:25:50;99657.63;;;20.83;42.71
40075;BME280;26529;51.530;11.754;2023-03-12T09:28:16;99667.53;;;20.81;42.69
40075;BME280;26529;51.530;11.754;2023-03-12T09:30:42;99659.53;;;20.81;42.70
40075;BME280;26529;51.530;11.754;2023-03-12T09:33:08;99656.16;;;20.79;42.63
40075;BME280;26529;51.530;11.754;2023-03-12T09:35:33;99655.31;;;20.79;42.70
40075;BME280;26529;51.530;11.754;2023-03-12T09:37:59;99654.47;;;20.78;42.76
40075;BME280;26529;51.530;11.754;2023-03-12T09:40:27;99642.97;;;20.78;42.73
40075;BME280;26529;51.530;11.754;2023-03-12T09:42:57;99642.00;;;20.79;42.88
40075;BME280;26529;51.530;11.754;2023-03-12T09:45:27;99640.19;;;20.79;42.88
40075;BME280;26529;51.530;11.754;2023-03-12T09:48:00;99640.06;;;20.81;42.87
40075;BME280;26529;51.530;11.754;2023-03-12T09:50:35;99642.72;;;20.81;43.00
40075;BME280;26529;51.530;11.754;2023-03-12T09:53:32;99650.72;;;20.81;43.04
40075;BME280;26529;51.530;11.754;2023-03-12T09:56:03;99642.72;;;20.81;43.06
40075;BME280;26529;51.530;11.754;2023-03-12T09:58:37;99640.19;;;20.79;43.10
40075;BME280;26529;51.530;11.754;2023-03-12T10:01:27;99644.66;;;20.79;42.92
40075;BME280;26529;51.530;11.754;2023-03-12T10:09:35;99630.63;;;20.77;43.03
40075;BME280;26529;51.530;11.754;2023-03-12T10:12:14;99626.38;;;20.74;42.98
40075;BME280;26529;51.530;11.754;2023-03-12T10:14:51;99623.84;;;20.72;42.89
40075;BME280;26529;51.530;11.754;2023-03-12T10:17:34;99639.00;;;20.72;42.88
40075;BME280;26529;51.530;11.754;2023-03-12T10:23:06;99631.97;;;20.71;42.89
40075;BME280;26529;51.530;11.754;2023-03-12T10:28:43;99621.06;;;20.74;43.06
40075;BME280;26529;51.530;11.754;2023-03-12T10:31:20;99616.47;;;20.76;43.05
40075;BME280;26529;51.530;11.754;2023-03-12T10:33:56;99622.50;;;20.78;43.09
40075;BME280;26529;51.530;11.754;2023-03-12T10:36:26;99614.41;;;20.80;43.34
40075;BME280;26529;51.530;11.754;2023-03-12T10:38:52;99607.00;;;20.83;43.20
40075;BME280;26529;51.530;11.754;2023-03-12T10:41:21;99603.25;;;20.86;43.11
40075;BME280;26529;51.530;11.754;2023-03-12T10:43:47;99596.97;;;20.87;43.21
40075;BME280;26529;51.530;11.754;2023-03-12T10:54:42;99600.22;;;20.91;43.01
40075;BME280;26529;51.530;11.754;2023-03-12T10:57:10;99598.53;;;20.90;43.25
40075;BME280;26529;51.530;11.754;2023-03-12T10:59:38;99594.16;;;20.88;43.18
40075;BME280;26529;51.530;11.754;2023-03-12T11:02:30;99592.25;;;20.91;43.29
40075;BME280;26529;51.530;11.754;2023-03-12T11:04:57;99588.72;;;20.90;43.22
40075;BME280;26529;51.530;11.754;2023-03-12T11:07:30;99581.69;;;20.89;43.28
40075;BME280;26529;51.530;11.754;2023-03-12T11:12:31;99573.81;;;20.87;43.09
40075;BME280;26529;51.530;11.754;2023-03-12T11:14:58;99577.47;;;20.86;43.17
40075;BME280;26529;51.530;11.754;2023-03-12T11:17:27;99562.34;;;20.87;42.96
40075;BME280;26529;51.530;11.754;2023-03-12T11:19:53;99561.47;;;20.86;43.10
40075;BME280;26529;51.530;11.754;2023-03-12T11:22:29;99558.09;;;20.84;43.00
40075;BME280;26529;51.530;11.754;2023-03-12T11:25:00;99563.44;;;20.84;43.17
40075;BME280;26529;51.530;11.754;2023-03-12T11:27:40;99560.84;;;20.83;43.09
40075;BME280;26529;51.530;11.754;2023-03-12T11:30:11;99557.31;;;20.82;43.03
40075;BME280;26529;51.530;11.754;2023-03-12T11:32:45;99558.31;;;20.81;43.03
40075;BME280;26529;51.530;11.754;2023-03-12T11:35:14;99556.63;;;20.80;43.01
40075;BME280;26529;51.530;11.754;2023-03-12T11:42:43;99543.56;;;20.77;43.25
40075;BME280;26529;51.530;11.754;2023-03-12T11:45:46;99532.91;;;20.77;43.15
40075;BME280;26529;51.530;11.754;2023-03-12T11:48:27;99529.50;;;20.75;43.11
40075;BME280;26529;51.530;11.754;2023-03-12T11:56:22;99517.16;;;20.74;43.05
40075;BME280;26529;51.530;11.754;2023-03-12T11:59:16;99498.78;;;20.71;43.04
40075;BME280;26529;51.530;11.754;2023-03-12T12:09:38;99501.47;;;20.59;43.29
40075;BME280;26529;51.530;11.754;2023-03-12T12:18:00;99481.53;;;20.54;43.21
40075;BME280;26529;51.530;11.754;2023-03-12T12:20:38;99486.00;;;20.53;43.01
40075;BME280;26529;51.530;11.754;2023-03-12T12:23:18;99477.28;;;20.51;43.12
40075;BME280;26529;51.530;11.754;2023-03-12T12:26:05;99493.50;;;20.48;43.17
40075;BME280;26529;51.530;11.754;2023-03-12T12:37:13;99481.44;;;20.44;43.29
40075;BME280;26529;51.530;11.754;2023-03-12T12:40:01;99471.03;;;20.41;43.22
40075;BME280;26529;51.530;11.754;2023-03-12T12:42:35;99464.88;;;20.40;43.35
40075;BME280;26529;51.530;11.754;2023-03-12T12:45:03;99471.28;;;20.38;43.37
40075;BME280;26529;51.530;11.754;2023-03-12T12:47:43;99459.88;;;20.36;43.17
40075;BME280;26529;51.530;11.754;2023-03-12T12:50:17;99457.50;;;20.32;43.20
40075;BME280;26529;51.530;11.754;2023-03-12T12:52:49;99457.50;;;20.32;43.15
40075;BME280;26529;51.530;11.754;2023-03-12T12:56:08;99448.06;;;20.28;43.41
40075;BME280;26529;51.530;11.754;2023-03-12T13:01:16;99447.09;;;20.29;43.21
40075;BME280;26529;51.530;11.754;2023-03-12T13:03:43;99435.88;;;20.26;43.29
40075;BME280;26529;51.530;11.754;2023-03-12T13:06:10;99438.66;;;20.24;43.34
40075;BME280;26529;51.530;11.754;2023-03-12T13:13:42;99435.00;;;20.25;43.29
40075;BME280;26529;51.530;11.754;2023-03-12T13:16:26;99437.31;;;20.18;43.56
40075;BME280;26529;51.530;11.754;2023-03-12T13:18:56;99435.13;;;20.24;43.29
40075;BME280;26529;51.530;11.754;2023-03-12T13:24:12;99423.78;;;20.22;43.33
40075;BME280;26529;51.530;11.754;2023-03-12T13:32:01;99404.53;;;20.29;43.31
40075;BME280;26529;51.530;11.754;2023-03-12T13:36:56;99418.28;;;20.34;43.27
40075;BME280;26529;51.530;11.754;2023-03-12T13:39:34;99412.72;;;20.38;43.23
40075;BME280;26529;51.530;11.754;2023-03-12T13:44:49;99412.72;;;20.38;43.32
40075;BME280;26529;51.530;11.754;2023-03-12T13:47:26;99409.31;;;20.36;43.31
40075;BME280;26529;51.530;11.754;2023-03-12T13:50:04;99403.03;;;20.37;43.26
40075;BME280;26529;51.530;11.754;2023-03-12T13:52:45;99409.19;;;20.37;43.48
40075;BME280;26529;51.530;11.754;2023-03-12T13:57:44;99402.88;;;20.38;43.47
40075;BME280;26529;51.530;11.754;2023-03-12T14:02:52;99399.63;;;20.34;43.46
40075;BME280;26529;51.530;11.754;2023-03-12T14:05:19;99398.94;;;20.32;43.44
40075;BME280;26529;51.530;11.754;2023-03-12T14:07:51;99391.91;;;20.31;43.32
40075;BME280;26529;51.530;11.754;2023-03-12T14:10:30;99384.91;;;20.30;43.49
40075;BME280;26529;51.530;11.754;2023-03-12T14:18:34;99376.53;;;20.35;43.37
40075;BME280;26529;51.530;11.754;2023-03-12T14:21:06;99375.44;;;20.38;43.32
40075;BME280;26529;51.530;11.754;2023-03-12T14:23:36;99369.00;;;20.40;43.21
40075;BME280;26529;51.530;11.754;2023-03-12T14:26:03;99371.53;;;20.42;43.44
40075;BME280;26529;51.530;11.754;2023-03-12T14:28:39;99354.59;;;20.43;43.35
40075;BME280;26529;51.530;11.754;2023-03-12T14:31:12;99358.69;;;20.47;43.43